sensor_id;sensor_type;location;lat;lon;timestamp;pressure;altitude;pressure_sealevel;temperature;humidity
34124;BME280;13153;52.316;21.166;2023-05-11T00:02:14;100963.59;;;14.15;34.93
34124;BME280;13153;52.316;21.166;2023-05-11T00:04:40;100961.00;;;14.16;34.52
34124;BME280;13153;52.316;21.166;2023-05-11T00:07:06;100958.25;;;14.12;34.49
34124;BME280;13153;52.316;21.166;2023-05-11T00:09:31;100958.97;;;14.05;35.03
34124;BME280;13153;52.316;21.166;2023-05-11T00:11:57;100962.41;;;14.01;35.03
34124;BME280;13153;52.316;21.166;2023-05-11T00:14:23;100959.59;;;13.93;35.75
34124;BME280;13153;52.316;21.166;2023-05-11T00:16:49;100956.03;;;13.91;36.05
34124;BME280;13153;52.316;21.166;2023-05-11T00:19:14;100957.63;;;13.83;35.73
34124;BME280;13153;52.316;21.166;2023-05-11T00:21:40;100961.16;;;13.82;35.48
34124;BME280;13153;52.316;21.166;2023-05-11T00:24:07;100956.63;;;13.78;35.78
34124;BME280;13153;52.316;21.166;2023-05-11T00:26:32;100960.19;;;13.78;35.88
34124;BME280;13153;52.316;21.166;2023-05-11T00:28:58;100967.03;;;13.70;35.97
34124;BME280;13153;52.316;21.166;2023-05-11T00:31:24;100951.13;;;13.69;37.06
34124;BME280;13153;52.316;21.166;2023-05-11T00:33:51;100958.09;;;13.65;36.76
34124;BME280;13153;52.316;21.166;2023-05-11T00:36:19;100961.53;;;13.61;37.81
34124;BME280;13153;52.316;21.166;2023-05-11T00:38:45;100960.59;;;13.59;38.07
34124;BME280;13153;52.316;21.166;2023-05-11T00:41:11;100957.66;;;13.47;37.59
34124;BME280;13153;52.316;21.166;2023-05-11T00:43:36;100955.81;;;13.43;37.38
34124;BME280;13153;52.316;21.166;2023-05-11T00:46:03;100964.31;;;13.31;37.39
34124;BME280;13153;52.316;21.166;2023-05-11T00:48:29;100954.66;;;13.32;37.82
34124;BME280;13153;52.316;21.166;2023-05-11T00:50:55;100948.31;;;13.24;37.78
34124;BME280;13153;52.316;21.166;2023-05-11T00:53:23;100942.03;;;13.18;38.12
34124;BME280;13153;52.316;21.166;2023-05-11T00:55:49;100948.06;;;13.14;37.67
34124;BME280;13153;52.316;21.166;2023-05-11T00:58:15;100953.34;;;13.14;37.27
34124;BME280;13153;52.316;21.166;2023-05-11T01:00:42;100947.91;;;13.08;37.46
34124;BME280;13153;52.316;21.166;2023-05-11T01:03:09;100944.34;;;13.08;37.71
34124;BME280;13153;52.316;21.166;2023-05-11T01:05:44;100942.50;;;13.04;37.96
34124;BME280;13153;52.316;21.166;2023-05-11T01:08:21;100943.34;;;13.03;37.81
34124;BME280;13153;52.316;21.166;2023-05-11T01:11:34;100942.38;;;12.99;39.27
34124;BME280;13153;52.316;21.166;2023-05-11T01:14:26;100950.09;;;12.92;39.49
34124;BME280;13153;52.316;21.166;2023-05-11T01:17:03;100941.97;;;12.84;38.55
34124;BME280;13153;52.316;21.166;2023-05-11T01:19:46;100939.91;;;12.72;38.27
34124;BME280;13153;52.316;21.166;2023-05-11T01:22:42;100937.84;;;12.61;38.11
34124;BME280;13153;52.316;21.166;2023-05-11T01:30:46;100940.16;;;12.48;38.24
34124;BME280;13153;52.316;21.166;2023-05-11T01:33:14;100939.25;;;12.48;38.34
34124;BME280;13153;52.316;21.166;2023-05-11T01:35:49;100942.88;;;12.51;38.20
34124;BME280;13153;52.316;21.166;2023-05-11T01:38:18;100940.41;;;12.57;38.28
34124;BME280;13153;52.316;21.166;2023-05-11T01:40:52;100939.56;;;12.59;38.66
34124;BME280;13153;52.316;21.166;2023-05-11T01:43:23;100934.22;;;12.57;39.49
34124;BME280;13153;52.316;21.166;2023-05-11T01:45:54;100942.06;;;12.54;38.33
34124;BME280;13153;52.316;21.166;2023-05-11T01:48:27;100938.31;;;12.46;39.10
34124;BME280;13153;52.316;21.166;2023-05-11T01:50:59;100939.72;;;12.33;39.31
34124;BME280;13153;52.316;21.166;2023-05-11T01:53:31;100929.97;;;12.31;38.83
34124;BME280;13153;52.316;21.166;2023-05-11T01:55:59;100935.22;;;12.29;39.55
34124;BME280;13153;52.316;21.166;2023-05-11T01:58:28;100940.31;;;12.23;39.57
34124;BME280;13153;52.316;21.166;2023-05-11T02:00:56;100936.59;;;12.16;39.59
34124;BME280;13153;52.316;21.166;2023-05-11T02:03:26;100940.00;;;12.11;39.46
34124;BME280;13153;52.316;21.166;2023-05-11T02:05:53;100944.28;;;12.07;39.19
34124;BME280;13153;52.316;21.166;2023-05-11T02:08:20;100938.00;;;12.04;39.88
34124;BME280;13153;52.316;21.166;2023-05-11T02:10:48;100948.47;;;12.01;39.49
34124;BME280;13153;52.316;21.166;2023-05-11T02:13:16;100943.09;;;11.98;40.14
34124;BME280;13153;52.316;21.166;2023-05-11T02:15:45;100945.59;;;11.93;40.59
34124;BME280;13153;52.316;21.166;2023-05-11T02:18:14;100941.28;;;11.95;41.26
34124;BME280;13153;52.316;21.166;2023-05-11T02:20:43;100941.22;;;11.94;41.21
34124;BME280;13153;52.316;21.166;2023-05-11T02:23:10;100950.88;;;11.93;40.20
34124;BME280;13153;52.316;21.166;2023-05-11T02:25:39;100944.63;;;11.89;39.71
34124;BME280;13153;52.316;21.166;2023-05-11T02:28:06;100944.34;;;11.80;39.89
34124;BME280;13153;52.316;21.166;2023-05-11T02:30:42;100946.66;;;11.71;40.24
34124;BME280;13153;52.316;21.166;2023-05-11T02:33:13;100952.81;;;11.72;40.65
34124;BME280;13153;52.316;21.166;2023-05-11T02:35:43;100943.03;;;11.68;40.72
34124;BME280;13153;52.316;21.166;2023-05-11T02:38:13;100954.63;;;11.73;41.95
34124;BME280;13153;52.316;21.166;2023-05-11T02:40:48;100949.44;;;11.76;40.98
34124;BME280;13153;52.316;21.166;2023-05-11T02:43:23;100943.50;;;11.81;41.20
34124;BME280;13153;52.316;21.166;2023-05-11T02:45:55;100950.59;;;11.84;40.16
34124;BME280;13153;52.316;21.166;2023-05-11T02:48:27;100948.00;;;11.85;41.54
34124;BME280;13153;52.316;21.166;2023-05-11T02:50:57;100955.88;;;11.84;39.82
34124;BME280;13153;52.316;21.166;2023-05-11T02:53:27;100952.25;;;11.80;40.73
34124;BME280;13153;52.316;21.166;2023-05-11T02:55:55;100953.06;;;11.78;40.82
34124;BME280;13153;52.316;21.166;2023-05-11T02:58:21;100950.41;;;11.78;41.17
34124;BME280;13153;52.316;21.166;2023-05-11T03:00:48;100956.59;;;11.78;40.92
34124;BME280;13153;52.316;21.166;2023-05-11T03:03:14;100950.41;;;11.78;40.85
34124;BME280;13153;52.316;21.166;2023-05-11T03:05:40;100961.00;;;11.79;40.36
34124;BME280;13153;52.316;21.166;2023-05-11T03:08:06;100949.72;;;11.83;39.98
34124;BME280;13153;52.316;21.166;2023-05-11T03:10:32;100950.88;;;11.93;40.23
34124;BME280;13153;52.316;21.166;2023-05-11T03:12:58;100943.38;;;12.07;39.93
34124;BME280;13153;52.316;21.166;2023-05-11T03:15:25;100959.84;;;12.30;40.34
34124;BME280;13153;52.316;21.166;2023-05-11T03:17:53;100956.84;;;12.47;38.87
34124;BME280;13153;52.316;21.166;2023-05-11T03:20:22;100958.34;;;12.69;38.92
34124;BME280;13153;52.316;21.166;2023-05-11T03:22:49;100955.22;;;12.85;38.34
34124;BME280;13153;52.316;21.166;2023-05-11T03:25:17;100955.66;;;13.02;38.29
34124;BME280;13153;52.316;21.166;2023-05-11T03:27:44;100959.75;;;13.23;38.00
34124;BME280;13153;52.316;21.166;2023-05-11T03:30:13;100969.13;;;13.47;37.59
34124;BME280;13153;52.316;21.166;2023-05-11T03:32:39;100957.28;;;13.68;36.75
34124;BME280;13153;52.316;21.166;2023-05-11T03:35:06;100960.34;;;13.87;36.78
34124;BME280;13153;52.316;21.166;2023-05-11T03:37:36;100973.78;;;13.97;36.07
34124;BME280;13153;52.316;21.166;2023-05-11T03:40:04;100966.88;;;14.03;36.05
34124;BME280;13153;52.316;21.166;2023-05-11T03:42:33;100964.41;;;14.11;35.04
34124;BME280;13153;52.316;21.166;2023-05-11T03:45:02;100971.34;;;14.06;35.27
34124;BME280;13153;52.316;21.166;2023-05-11T03:47:32;100968.44;;;14.34;35.27
34124;BME280;13153;52.316;21.166;2023-05-11T03:50:01;100967.91;;;14.52;35.41
34124;BME280;13153;52.316;21.166;2023-05-11T03:52:29;100964.72;;;14.68;34.77
34124;BME280;13153;52.316;21.166;2023-05-11T03:54:55;100967.72;;;14.88;34.26
34124;BME280;13153;52.316;21.166;2023-05-11T03:57:24;100973.19;;;14.96;33.39
34124;BME280;13153;52.316;21.166;2023-05-11T03:59:51;100978.75;;;15.12;34.23
34124;BME280;13153;52.316;21.166;2023-05-11T04:02:16;100983.50;;;15.32;33.02
34124;BME280;13153;52.316;21.166;2023-05-11T04:04:42;100977.88;;;15.66;33.13
34124;BME280;13153;52.316;21.166;2023-05-11T04:07:08;100982.13;;;16.14;32.83
34124;BME280;13153;52.316;21.166;2023-05-11T04:09:34;100984.47;;;16.61;31.83
34124;BME280;13153;52.316;21.166;2023-05-11T04:11:59;100984.66;;;16.73;31.21
34124;BME280;13153;52.316;21.166;2023-05-11T04:14:25;100979.00;;;16.48;31.22
34124;BME280;13153;52.316;21.166;2023-05-11T04:16:51;100988.13;;;16.67;31.20
34124;BME280;13153;52.316;21.166;2023-05-11T04:19:17;100979.47;;;16.88;31.36
34124;BME280;13153;52.316;21.166;2023-05-11T04:21:42;100982.47;;;17.25;31.04
34124;BME280;13153;52.316;21.166;2023-05-11T04:24:08;100984.34;;;17.39;29.97
34124;BME280;13153;52.316;21.166;2023-05-11T04:26:34;100990.56;;;17.40;30.21
34124;BME280;13153;52.316;21.166;2023-05-11T04:29:00;100990.59;;;17.43;30.16
34124;BME280;13153;52.316;21.166;2023-05-11T04:31:25;100981.75;;;17.47;30.20
34124;BME280;13153;52.316;21.166;2023-05-11T04:33:51;100987.19;;;17.61;29.72
34124;BME280;13153;52.316;21.166;2023-05-11T04:36:17;100990.88;;;17.73;29.86
34124;BME280;13153;52.316;21.166;2023-05-11T04:38:43;100988.50;;;18.25;29.57
34124;BME280;13153;52.316;21.166;2023-05-11T04:41:08;100987.72;;;18.58;29.17
34124;BME280;13153;52.316;21.166;2023-05-11T04:43:34;100983.38;;;18.72;28.29
34124;BME280;13153;52.316;21.166;2023-05-11T04:46:00;100989.66;;;19.16;28.19
34124;BME280;13153;52.316;21.166;2023-05-11T04:48:26;100991.44;;;19.74;27.65
34124;BME280;13153;52.316;21.166;2023-05-11T04:50:55;100995.75;;;20.29;26.91
34124;BME280;13153;52.316;21.166;2023-05-11T04:53:22;100997.38;;;20.79;26.56
34124;BME280;13153;52.316;21.166;2023-05-11T04:55:48;100996.13;;;21.33;26.08
34124;BME280;13153;52.316;21.166;2023-05-11T04:58:13;101004.53;;;21.90;25.27
34124;BME280;13153;52.316;21.166;2023-05-11T05:00:39;101002.00;;;22.56;24.40
34124;BME280;13153;52.316;21.166;2023-05-11T05:03:05;101004.19;;;23.54;23.94
34124;BME280;13153;52.316;21.166;2023-05-11T05:05:32;101014.28;;;24.36;21.21
34124;BME280;13153;52.316;21.166;2023-05-11T05:07:57;101006.56;;;25.03;20.88
34124;BME280;13153;52.316;21.166;2023-05-11T05:10:23;101006.56;;;25.42;20.38
34124;BME280;13153;52.316;21.166;2023-05-11T05:12:49;101004.03;;;26.04;20.06
34124;BME280;13153;52.316;21.166;2023-05-11T05:15:15;101014.38;;;26.82;19.49
34124;BME280;13153;52.316;21.166;2023-05-11T05:17:41;101015.00;;;27.20;18.78
34124;BME280;13153;52.316;21.166;2023-05-11T05:20:07;101021.22;;;27.50;18.46
34124;BME280;13153;52.316;21.166;2023-05-11T05:22:33;101018.69;;;28.24;17.81
34124;BME280;13153;52.316;21.166;2023-05-11T05:24:59;101019.44;;;29.21;17.49
34124;BME280;13153;52.316;21.166;2023-05-11T05:27:25;101023.88;;;29.88;16.88
34124;BME280;13153;52.316;21.166;2023-05-11T05:29:51;101018.19;;;30.35;15.91
34124;BME280;13153;52.316;21.166;2023-05-11T05:32:17;101033.88;;;30.48;16.00
34124;BME280;13153;52.316;21.166;2023-05-11T05:34:42;101018.72;;;30.63;15.51
34124;BME280;13153;52.316;21.166;2023-05-11T05:37:08;101024.75;;;31.26;15.53
34124;BME280;13153;52.316;21.166;2023-05-11T05:39:34;101033.63;;;31.48;15.09
34124;BME280;13153;52.316;21.166;2023-05-11T05:42:00;101032.00;;;31.98;14.84
34124;BME280;13153;52.316;21.166;2023-05-11T05:44:27;101033.22;;;31.75;14.55
34124;BME280;13153;52.316;21.166;2023-05-11T05:46:53;101034.50;;;31.68;14.62
34124;BME280;13153;52.316;21.166;2023-05-11T05:49:19;101033.38;;;32.06;14.76
34124;BME280;13153;52.316;21.166;2023-05-11T05:51:45;101036.50;;;31.81;14.54
34124;BME280;13153;52.316;21.166;2023-05-11T05:54:11;101034.88;;;31.77;14.55
34124;BME280;13153;52.316;21.166;2023-05-11T05:56:38;101039.47;;;32.11;14.36
34124;BME280;13153;52.316;21.166;2023-05-11T05:59:06;101032.47;;;32.40;14.33
34124;BME280;13153;52.316;21.166;2023-05-11T06:01:34;101027.91;;;32.74;13.92
34124;BME280;13153;52.316;21.166;2023-05-11T06:04:00;101042.75;;;32.18;14.64
34124;BME280;13153;52.316;21.166;2023-05-11T06:06:26;101032.81;;;31.82;14.05
34124;BME280;13153;52.316;21.166;2023-05-11T06:08:52;101031.91;;;31.65;14.32
34124;BME280;13153;52.316;21.166;2023-05-11T06:11:18;101034.84;;;31.24;14.70
34124;BME280;13153;52.316;21.166;2023-05-11T06:13:44;101051.94;;;31.45;14.19
34124;BME280;13153;52.316;21.166;2023-05-11T06:16:09;101047.44;;;31.44;14.22
34124;BME280;13153;52.316;21.166;2023-05-11T06:18:35;101035.94;;;32.09;14.43
34124;BME280;13153;52.316;21.166;2023-05-11T06:21:01;101034.63;;;32.51;13.38
34124;BME280;13153;52.316;21.166;2023-05-11T06:23:27;101033.44;;;32.90;13.49
34124;BME280;13153;52.316;21.166;2023-05-11T06:25:53;101046.47;;;33.16;13.33
34124;BME280;13153;52.316;21.166;2023-05-11T06:28:18;101041.88;;;33.01;13.10
34124;BME280;13153;52.316;21.166;2023-05-11T06:30:44;101044.34;;;33.05;13.15
34124;BME280;13153;52.316;21.166;2023-05-11T06:33:10;101043.28;;;32.42;13.17
34124;BME280;13153;52.316;21.166;2023-05-11T06:35:36;101047.59;;;32.30;13.81
34124;BME280;13153;52.316;21.166;2023-05-11T06:38:02;101044.00;;;33.27;13.09
34124;BME280;13153;52.316;21.166;2023-05-11T06:40:28;101046.53;;;32.83;13.13
34124;BME280;13153;52.316;21.166;2023-05-11T06:42:54;101044.53;;;30.53;14.16
34124;BME280;13153;52.316;21.166;2023-05-11T06:45:20;101052.63;;;31.12;14.10
34124;BME280;13153;52.316;21.166;2023-05-11T06:47:46;101052.72;;;31.66;13.75
34124;BME280;13153;52.316;21.166;2023-05-11T06:50:12;101057.69;;;32.28;13.59
34124;BME280;13153;52.316;21.166;2023-05-11T06:52:38;101046.59;;;31.25;13.83
34124;BME280;13153;52.316;21.166;2023-05-11T06:55:04;101051.84;;;31.65;13.63
34124;BME280;13153;52.316;21.166;2023-05-11T06:57:30;101054.59;;;32.00;13.94
34124;BME280;13153;52.316;21.166;2023-05-11T06:59:56;101057.22;;;32.53;13.02
34124;BME280;13153;52.316;21.166;2023-05-11T07:02:22;101077.75;;;32.43;12.37
34124;BME280;13153;52.316;21.166;2023-05-11T07:04:48;101048.00;;;32.23;12.74
34124;BME280;13153;52.316;21.166;2023-05-11T07:07:14;101051.41;;;31.74;13.26
34124;BME280;13153;52.316;21.166;2023-05-11T07:09:39;101041.28;;;31.40;13.59
34124;BME280;13153;52.316;21.166;2023-05-11T07:12:05;101044.19;;;32.42;13.38
34124;BME280;13153;52.316;21.166;2023-05-11T07:14:31;101046.25;;;33.03;12.79
34124;BME280;13153;52.316;21.166;2023-05-11T07:16:57;101057.19;;;33.66;11.92
34124;BME280;13153;52.316;21.166;2023-05-11T07:19:23;101054.53;;;33.96;12.07
34124;BME280;13153;52.316;21.166;2023-05-11T07:21:48;101070.63;;;33.39;11.88
34124;BME280;13153;52.316;21.166;2023-05-11T07:24:14;101038.81;;;32.74;12.26
34124;BME280;13153;52.316;21.166;2023-05-11T07:26:40;101058.53;;;31.77;12.25
34124;BME280;13153;52.316;21.166;2023-05-11T07:29:06;101080.84;;;31.83;12.43
34124;BME280;13153;52.316;21.166;2023-05-11T07:31:32;101083.72;;;32.34;12.67
34124;BME280;13153;52.316;21.166;2023-05-11T07:33:58;101056.25;;;32.54;11.96
34124;BME280;13153;52.316;21.166;2023-05-11T07:36:24;101073.75;;;31.98;12.47
34124;BME280;13153;52.316;21.166;2023-05-11T07:38:50;101048.72;;;32.59;12.49
34124;BME280;13153;52.316;21.166;2023-05-11T07:41:15;101023.06;;;33.43;11.52
34124;BME280;13153;52.316;21.166;2023-05-11T07:43:42;101045.16;;;34.00;11.08
34124;BME280;13153;52.316;21.166;2023-05-11T07:46:08;101027.81;;;33.24;11.89
34124;BME280;13153;52.316;21.166;2023-05-11T07:48:34;101037.91;;;32.58;12.74
34124;BME280;13153;52.316;21.166;2023-05-11T07:50:59;101022.81;;;32.68;12.91
34124;BME280;13153;52.316;21.166;2023-05-11T07:53:26;101047.03;;;32.24;12.49
34124;BME280;13153;52.316;21.166;2023-05-11T07:55:52;101044.69;;;31.63;13.29
34124;BME280;13153;52.316;21.166;2023-05-11T07:58:18;101032.25;;;31.21;14.43
34124;BME280;13153;52.316;21.166;2023-05-11T08:00:43;101016.72;;;30.67;14.75
34124;BME280;13153;52.316;21.166;2023-05-11T08:03:09;101035.16;;;29.99;14.71
34124;BME280;13153;52.316;21.166;2023-05-11T08:05:35;101030.94;;;29.05;14.04
34124;BME280;13153;52.316;21.166;2023-05-11T08:08:03;101033.09;;;27.99;15.10
34124;BME280;13153;52.316;21.166;2023-05-11T08:10:30;101029.78;;;26.15;15.96
34124;BME280;13153;52.316;21.166;2023-05-11T08:12:56;101022.34;;;25.20;17.65
34124;BME280;13153;52.316;21.166;2023-05-11T08:15:23;101035.81;;;24.36;17.73
34124;BME280;13153;52.316;21.166;2023-05-11T08:17:49;101035.84;;;23.86;18.40
34124;BME280;13153;52.316;21.166;2023-05-11T08:20:15;101021.25;;;23.48;18.66
34124;BME280;13153;52.316;21.166;2023-05-11T08:22:41;101064.31;;;23.44;20.73
34124;BME280;13153;52.316;21.166;2023-05-11T08:25:07;101017.31;;;23.12;19.18
34124;BME280;13153;52.316;21.166;2023-05-11T08:27:33;101017.91;;;23.32;19.48
34124;BME280;13153;52.316;21.166;2023-05-11T08:29:59;101020.38;;;23.46;18.97
34124;BME280;13153;52.316;21.166;2023-05-11T08:32:24;101019.50;;;22.87;18.96
34124;BME280;13153;52.316;21.166;2023-05-11T08:34:51;101015.75;;;23.00;19.73
34124;BME280;13153;52.316;21.166;2023-05-11T08:37:17;101007.78;;;22.94;19.65
34124;BME280;13153;52.316;21.166;2023-05-11T08:39:43;101020.56;;;22.72;19.94
34124;BME280;13153;52.316;21.166;2023-05-11T08:42:10;100999.41;;;22.51;20.23
34124;BME280;13153;52.316;21.166;2023-05-11T08:44:42;101010.94;;;22.55;20.41
34124;BME280;13153;52.316;21.166;2023-05-11T08:47:10;101000.84;;;22.75;20.01
34124;BME280;13153;52.316;21.166;2023-05-11T08:49:36;100993.47;;;22.92;19.74
34124;BME280;13153;52.316;21.166;2023-05-11T08:52:04;101018.56;;;22.91;19.15
34124;BME280;13153;52.316;21.166;2023-05-11T08:54:31;101007.38;;;22.54;19.21
34124;BME280;13153;52.316;21.166;2023-05-11T08:56:58;101012.13;;;22.34;19.78
34124;BME280;13153;52.316;21.166;2023-05-11T08:59:27;101001.47;;;22.26;19.85
34124;BME280;13153;52.316;21.166;2023-05-11T09:01:55;100998.16;;;21.98;20.70
34124;BME280;13153;52.316;21.166;2023-05-11T09:04:22;100983.88;;;22.02;20.35
34124;BME280;13153;52.316;21.166;2023-05-11T09:06:50;100997.22;;;22.07;19.95
34124;BME280;13153;52.316;21.166;2023-05-11T09:09:16;100984.09;;;21.81;21.15
34124;BME280;13153;52.316;21.166;2023-05-11T09:11:44;101024.31;;;21.77;21.12
34124;BME280;13153;52.316;21.166;2023-05-11T09:14:11;100994.09;;;21.62;21.49
34124;BME280;13153;52.316;21.166;2023-05-11T09:16:37;100996.75;;;21.64;20.67
34124;BME280;13153;52.316;21.166;2023-05-11T09:19:04;101023.38;;;21.82;21.43
34124;BME280;13153;52.316;21.166;2023-05-11T09:21:31;101006.44;;;21.79;20.82
34124;BME280;13153;52.316;21.166;2023-05-11T09:23:58;100991.34;;;21.67;21.35
34124;BME280;13153;52.316;21.166;2023-05-11T09:26:24;100988.63;;;21.73;20.89
34124;BME280;13153;52.316;21.166;2023-05-11T09:28:58;100986.13;;;21.53;21.30
34124;BME280;13153;52.316;21.166;2023-05-11T09:31:42;100990.75;;;21.36;20.84
34124;BME280;13153;52.316;21.166;2023-05-11T09:36:35;101005.06;;;21.32;21.34
34124;BME280;13153;52.316;21.166;2023-05-11T09:39:02;100998.91;;;21.15;21.73
34124;BME280;13153;52.316;21.166;2023-05-11T09:41:30;100981.03;;;21.24;21.96
34124;BME280;13153;52.316;21.166;2023-05-11T09:44:11;100987.13;;;21.40;22.55
34124;BME280;13153;52.316;21.166;2023-05-11T09:46:40;101015.69;;;21.41;21.32
34124;BME280;13153;52.316;21.166;2023-05-11T09:49:07;100998.78;;;21.36;21.46
34124;BME280;13153;52.316;21.166;2023-05-11T09:51:36;100977.41;;;21.33;22.59
34124;BME280;13153;52.316;21.166;2023-05-11T09:54:20;100984.50;;;21.37;21.88
34124;BME280;13153;52.316;21.166;2023-05-11T09:56:48;100982.81;;;21.19;22.34
34124;BME280;13153;52.316;21.166;2023-05-11T09:59:16;100976.69;;;21.03;22.46
34124;BME280;13153;52.316;21.166;2023-05-11T10:01:42;100996.31;;;21.02;22.60
34124;BME280;13153;52.316;21.166;2023-05-11T10:04:08;100976.69;;;21.00;21.63
34124;BME280;13153;52.316;21.166;2023-05-11T10:06:47;100975.03;;;20.81;22.52
34124;BME280;13153;52.316;21.166;2023-05-11T10:09:15;100988.25;;;21.07;23.38
34124;BME280;13153;52.316;21.166;2023-05-11T10:11:45;100984.72;;;21.02;21.81
34124;BME280;13153;52.316;21.166;2023-05-11T10:14:14;100968.69;;;20.96;22.22
34124;BME280;13153;52.316;21.166;2023-05-11T10:16:42;100958.88;;;20.96;22.01
34124;BME280;13153;52.316;21.166;2023-05-11T10:19:10;100961.66;;;20.81;23.32
34124;BME280;13153;52.316;21.166;2023-05-11T10:21:37;100970.53;;;20.89;24.14
34124;BME280;13153;52.316;21.166;2023-05-11T10:24:04;100966.06;;;20.90;24.05
34124;BME280;13153;52.316;21.166;2023-05-11T10:26:30;100953.47;;;21.05;23.59
34124;BME280;13153;52.316;21.166;2023-05-11T10:29:00;100962.41;;;21.01;23.87
34124;BME280;13153;52.316;21.166;2023-05-11T10:31:28;100946.44;;;20.92;23.14
34124;BME280;13153;52.316;21.166;2023-05-11T10:33:55;100972.31;;;20.89;23.65
34124;BME280;13153;52.316;21.166;2023-05-11T10:36:23;100957.16;;;20.86;23.74
34124;BME280;13153;52.316;21.166;2023-05-11T10:38:49;100972.34;;;20.84;24.00
34124;BME280;13153;52.316;21.166;2023-05-11T10:41:46;100962.50;;;20.91;23.46
34124;BME280;13153;52.316;21.166;2023-05-11T10:53:54;100948.28;;;20.81;23.13
34124;BME280;13153;52.316;21.166;2023-05-11T10:56:54;100957.19;;;20.83;23.29
34124;BME280;13153;52.316;21.166;2023-05-11T11:02:32;100932.28;;;20.78;24.10
34124;BME280;13153;52.316;21.166;2023-05-11T11:04:59;100939.34;;;20.85;24.17
34124;BME280;13153;52.316;21.166;2023-05-11T11:07:57;100926.81;;;20.93;25.62
34124;BME280;13153;52.316;21.166;2023-05-11T11:10:39;100916.25;;;20.73;24.28
34124;BME280;13153;52.316;21.166;2023-05-11T11:13:11;100943.09;;;20.61;24.54
34124;BME280;13153;52.316;21.166;2023-05-11T11:18:24;100956.44;;;20.64;24.57
34124;BME280;13153;52.316;21.166;2023-05-11T11:20:53;100927.03;;;20.63;24.27
34124;BME280;13153;52.316;21.166;2023-05-11T11:26:05;100973.38;;;20.66;23.84
34124;BME280;13153;52.316;21.166;2023-05-11T11:31:24;100916.28;;;20.72;25.02
34124;BME280;13153;52.316;21.166;2023-05-11T11:33:50;100922.50;;;20.72;23.82
34124;BME280;13153;52.316;21.166;2023-05-11T11:36:16;100943.81;;;20.85;25.93
34124;BME280;13153;52.316;21.166;2023-05-11T11:38:57;100914.34;;;20.89;25.01
34124;BME280;13153;52.316;21.166;2023-05-11T11:41:30;100926.94;;;20.76;24.63
34124;BME280;13153;52.316;21.166;2023-05-11T11:43:58;100937.66;;;20.75;24.82
34124;BME280;13153;52.316;21.166;2023-05-11T11:46:28;100931.34;;;20.82;24.87
34124;BME280;13153;52.316;21.166;2023-05-11T11:49:08;100938.34;;;21.00;24.83
34124;BME280;13153;52.316;21.166;2023-05-11T11:51:35;100924.22;;;20.81;24.26
34124;BME280;13153;52.316;21.166;2023-05-11T11:54:05;100915.22;;;20.91;24.31
34124;BME280;13153;52.316;21.166;2023-05-11T11:59:01;100913.34;;;21.04;24.33
34124;BME280;13153;52.316;21.166;2023-05-11T12:01:37;100919.59;;;21.01;25.14
34124;BME280;13153;52.316;21.166;2023-05-11T12:06:40;100925.84;;;21.03;24.36
34124;BME280;13153;52.316;21.166;2023-05-11T12:09:06;100939.13;;;21.14;23.82
34124;BME280;13153;52.316;21.166;2023-05-11T12:11:33;100915.94;;;21.13;22.99
34124;BME280;13153;52.316;21.166;2023-05-11T12:14:01;100924.84;;;21.21;23.95
34124;BME280;13153;52.316;21.166;2023-05-11T12:16:27;100923.06;;;21.16;24.64
34124;BME280;13153;52.316;21.166;2023-05-11T12:18:56;100925.00;;;20.95;24.08
34124;BME280;13153;52.316;21.166;2023-05-11T12:21:29;100903.44;;;21.17;24.27
34124;BME280;13153;52.316;21.166;2023-05-11T12:24:00;100914.97;;;21.29;25.12
34124;BME280;13153;52.316;21.166;2023-05-11T12:26:28;100906.97;;;21.19;24.44
34124;BME280;13153;52.316;21.166;2023-05-11T12:29:13;100909.72;;;21.09;23.88
34124;BME280;13153;52.316;21.166;2023-05-11T12:31:44;100916.91;;;21.06;24.42
34124;BME280;13153;52.316;21.166;2023-05-11T12:34:18;100899.97;;;21.05;24.23
34124;BME280;13153;52.316;21.166;2023-05-11T12:36:46;100898.03;;;21.27;24.29
34124;BME280;13153;52.316;21.166;2023-05-11T12:39:17;100900.78;;;21.12;23.67
34124;BME280;13153;52.316;21.166;2023-05-11T12:41:43;100908.03;;;21.01;23.71
34124;BME280;13153;52.316;21.166;2023-05-11T12:44:10;100892.78;;;21.09;22.72
34124;BME280;13153;52.316;21.166;2023-05-11T12:46:36;100885.78;;;20.93;23.50
34124;BME280;13153;52.316;21.166;2023-05-11T12:49:02;100890.06;;;21.14;24.04
34124;BME280;13153;52.316;21.166;2023-05-11T12:51:50;100891.69;;;21.36;24.81
34124;BME280;13153;52.316;21.166;2023-05-11T12:54:35;100886.44;;;21.21;23.42
34124;BME280;13153;52.316;21.166;2023-05-11T12:57:20;100883.94;;;21.02;24.34
34124;BME280;13153;52.316;21.166;2023-05-11T12:59:46;100884.69;;;21.23;23.48
34124;BME280;13153;52.316;21.166;2023-05-11T13:02:18;100878.38;;;21.30;23.89
34124;BME280;13153;52.316;21.166;2023-05-11T13:04:46;100874.88;;;21.22;26.15
34124;BME280;13153;52.316;21.166;2023-05-11T13:07:22;100860.50;;;21.33;23.74
34124;BME280;13153;52.316;21.166;2023-05-11T13:09:59;100871.28;;;21.26;23.16
34124;BME280;13153;52.316;21.166;2023-05-11T13:12:27;100880.13;;;21.32;22.74
34124;BME280;13153;52.316;21.166;2023-05-11T13:15:08;100888.19;;;21.31;24.07
34124;BME280;13153;52.316;21.166;2023-05-11T13:17:40;100867.56;;;21.37;23.38
34124;BME280;13153;52.316;21.166;2023-05-11T13:20:20;100868.44;;;21.39;23.90
34124;BME280;13153;52.316;21.166;2023-05-11T13:22:48;100866.59;;;21.45;23.65